Waverly, Colorado
Current Conditions -  °F | °C
As of 12:52 PM on Thursday 29 Jan 2015 (Local Time) from KALS Reporting Station
Scattered Clouds Scattered Clouds  
Wind Chill: 42°   Ceiling: Unl
Heat Index: 44°   Visibility: 10mi
Dew Point: 21°   Wind: 5mph
Humidity: 40%   Direction: NA
Pressure: 30.39"   Gusts: NA
Location:  37.469°N, 105.836°W
Report Text: KALS 291952Z AUTO VRB04KT 10SM SCT120 07/M06 A3039 RMK AO2 SLP291 T00671061
Loading
Personal Weather Stations






























Interactive Weather Map New forecast layout! Learn more

10-Day Weather Forecast

Advertisements
Track Severe Weather on mobile